Tillman, Indiana
Current Conditions -  °F | °C
As of 12:54 AM on Friday 19 Dec 2014 (Local Time) from KFWA Reporting Station
Overcast Overcast  
Wind Chill: -7°   Ceiling: 2900
Heat Index: -3°   Visibility: 7mi
Dew Point: -6°   Wind: 7mph
Humidity: 81%   Direction: 260°W
Pressure: 30.23"   Gusts: NA
Location:  40.9863°N, 84.8797°W
Report Text: KFWA 190554Z 26006KT 7SM OVC029 M03/M06 A3023 RMK AO2 SLP247 T10281056 11028 21028 50000
Loading
Personal Weather Stations






























Interactive Weather Map New forecast layout! Learn more

10-Day Weather Forecast

Advertisements
Track Severe Weather on mobile